Time;durP1;ratioP1;P1;durP2;ratioP2;P2;SDS_P1;SDS_P2;PMS_P1;PMS_P2;Temp;Humidity;BMP_temperature;BMP_pressure;BME280_temperature;BME280_humidity;BME280_pressure;Samples;Min_cycle;Max_cycle;Signal;HPM_P1;HPM_P2
2022/01/11 00:00:16;;;;;;;9.55;7.90;;;9.10;99.90;;;;;;5081924;28;20128;-56
2022/01/11 00:02:44;;;;;;;11.57;7.63;;;9.10;99.90;;;;;;5082624;28;20148;-56
2022/01/11 00:05:19;;;;;;;10.05;7.63;;;9.10;99.90;;;;;;5083024;28;20149;-56
2022/01/11 00:07:46;;;;;;;9.98;7.68;;;9.10;99.90;;;;;;5083364;28;20546;-55
2022/01/11 00:10:25;;;;;;;10.88;8.68;;;9.10;99.90;;;;;;5082621;28;20823;-54
2022/01/11 00:12:51;;;;;;;10.20;8.18;;;9.10;99.90;;;;;;5083262;28;20155;-56
2022/01/11 00:15:18;;;;;;;9.25;7.50;;;9.10;99.90;;;;;;5082743;28;20071;-55
2022/01/11 00:17:45;;;;;;;10.32;8.20;;;9.20;99.90;;;;;;5082057;28;20130;-56
2022/01/11 00:20:15;;;;;;;10.32;8.80;;;9.10;99.90;;;;;;5083242;28;20079;-59
2022/01/11 00:25:28;;;;;;;12.10;8.85;;;9.10;99.90;;;;;;5081041;28;20079;-56
2022/01/11 00:27:56;;;;;;;13.50;9.27;;;9.10;99.90;;;;;;5083181;28;20392;-57
2022/01/11 00:30:23;;;;;;;11.00;8.50;;;9.10;99.90;;;;;;5084099;28;20146;-56
2022/01/11 00:32:54;;;;;;;10.00;8.25;;;9.10;99.90;;;;;;5082591;28;20051;-56
2022/01/11 00:35:27;;;;;;;11.80;8.32;;;9.10;99.90;;;;;;5083503;28;20471;-56
2022/01/11 00:37:55;;;;;;;9.80;7.78;;;9.10;99.90;;;;;;5083305;28;20131;-56
2022/01/11 00:40:22;;;;;;;11.32;8.25;;;9.10;99.90;;;;;;5082970;28;20163;-53
2022/01/11 00:42:49;;;;;;;12.38;8.77;;;9.10;99.90;;;;;;5083031;28;20086;-56
2022/01/11 00:45:15;;;;;;;10.35;8.25;;;9.10;99.90;;;;;;5081206;28;20488;-54
2022/01/11 00:47:42;;;;;;;10.80;8.18;;;9.10;99.90;;;;;;5082592;28;20459;-55
2022/01/11 00:50:10;;;;;;;9.23;8.20;;;9.10;99.90;;;;;;5081640;28;20141;-56
2022/01/11 00:52:36;;;;;;;13.30;9.20;;;9.10;99.90;;;;;;5082975;28;20557;-57
2022/01/11 00:55:04;;;;;;;13.77;8.48;;;9.10;99.90;;;;;;5083628;28;20072;-56
2022/01/11 00:57:30;;;;;;;12.32;8.35;;;9.10;99.90;;;;;;5082935;28;20083;-56
2022/01/11 00:59:58;;;;;;;12.65;8.80;;;9.20;99.90;;;;;;5082953;28;20135;-56
2022/01/11 01:02:25;;;;;;;9.48;8.07;;;9.20;99.90;;;;;;5066552;28;20483;-54
2022/01/11 01:04:52;;;;;;;10.23;8.10;;;9.20;99.90;;;;;;5083319;28;20120;-56
2022/01/11 01:07:18;;;;;;;10.98;7.95;;;9.20;99.90;;;;;;5083219;28;20082;-56
2022/01/11 01:12:41;;;;;;;12.50;8.73;;;9.20;99.90;;;;;;5073086;28;20210;-54
2022/01/11 01:15:08;;;;;;;8.95;7.85;;;9.20;99.90;;;;;;5082400;28;20662;-56
2022/01/11 01:17:35;;;;;;;10.32;7.55;;;9.20;99.90;;;;;;5081932;28;20086;-53
2022/01/11 01:20:03;;;;;;;10.80;6.97;;;9.20;99.90;;;;;;5082954;28;20135;-55
2022/01/11 01:22:29;;;;;;;11.25;7.63;;;9.20;99.90;;;;;;5082418;28;20074;-55
2022/01/11 01:24:56;;;;;;;9.85;7.82;;;9.20;99.90;;;;;;5083342;28;20397;-56
2022/01/11 01:27:23;;;;;;;9.55;7.25;;;9.10;99.90;;;;;;5083017;28;20094;-57
2022/01/11 01:29:50;;;;;;;11.45;8.73;;;9.10;99.90;;;;;;5081569;28;20245;-58
2022/01/11 01:32:16;;;;;;;10.82;8.07;;;9.10;99.90;;;;;;5082369;28;20094;-54
2022/01/11 01:34:43;;;;;;;10.70;7.90;;;9.10;99.90;;;;;;5081361;28;20601;-55
2022/01/11 01:37:10;;;;;;;9.30;7.22;;;9.10;99.90;;;;;;5064659;28;20079;-55
2022/01/11 01:39:37;;;;;;;8.68;6.85;;;9.10;99.90;;;;;;5082740;28;20094;-61
2022/01/11 01:42:04;;;;;;;9.18;8.15;;;9.10;99.90;;;;;;5082538;28;20076;-55
2022/01/11 01:44:33;;;;;;;9.95;7.25;;;9.20;99.90;;;;;;5082463;28;20151;-53
2022/01/11 01:47:00;;;;;;;8.68;6.68;;;9.20;99.90;;;;;;5082167;28;20078;-56
2022/01/11 01:49:28;;;;;;;9.02;6.72;;;9.20;99.90;;;;;;5082916;28;20454;-53
2022/01/11 01:51:55;;;;;;;10.25;7.32;;;9.20;99.90;;;;;;5082214;28;20125;-55
2022/01/11 01:54:23;;;;;;;9.18;6.97;;;9.20;99.90;;;;;;5082331;28;20071;-59
2022/01/11 01:56:50;;;;;;;12.88;8.27;;;9.20;99.90;;;;;;5082408;28;20052;-59
2022/01/11 01:59:17;;;;;;;10.50;7.10;;;9.20;99.90;;;;;;5064996;28;20201;-53
2022/01/11 02:01:46;;;;;;;9.70;6.72;;;9.20;99.90;;;;;;5080820;28;20136;-56
2022/01/11 02:04:15;;;;;;;9.60;7.95;;;9.20;99.90;;;;;;5082586;28;20048;-61
2022/01/11 02:06:42;;;;;;;8.75;7.03;;;9.20;99.90;;;;;;5082280;28;20036;-56
2022/01/11 02:09:10;;;;;;;9.70;6.93;;;9.10;99.90;;;;;;5082765;28;20084;-55
2022/01/11 02:11:37;;;;;;;9.32;7.40;;;9.20;99.90;;;;;;5081805;28;20075;-58
2022/01/11 02:14:04;;;;;;;10.02;7.07;;;9.10;99.90;;;;;;5080760;28;20136;-56
2022/01/11 02:16:31;;;;;;;10.25;7.25;;;9.10;99.90;;;;;;5081282;28;20127;-56
2022/01/11 02:18:58;;;;;;;7.75;6.57;;;9.20;99.90;;;;;;5082521;28;20052;-56
2022/01/11 02:21:25;;;;;;;10.63;7.22;;;9.20;99.90;;;;;;5079694;28;20123;-56
2022/01/11 02:23:52;;;;;;;9.95;6.72;;;9.20;99.90;;;;;;5081278;28;20677;-56
2022/01/11 02:26:19;;;;;;;11.27;7.20;;;9.20;99.90;;;;;;5081366;28;20067;-56
2022/01/11 02:28:46;;;;;;;9.65;7.10;;;9.20;99.90;;;;;;5081051;28;20148;-63
2022/01/11 02:31:12;;;;;;;9.52;7.40;;;9.10;99.90;;;;;;5080506;28;20040;-55
2022/01/11 02:33:46;;;;;;;10.52;7.20;;;9.20;99.90;;;;;;5071945;28;20071;-56
2022/01/11 02:36:18;;;;;;;8.57;6.38;;;9.20;99.90;;;;;;5080167;28;20216;-58
2022/01/11 02:38:46;;;;;;;10.88;6.75;;;9.20;99.90;;;;;;5083772;28;20109;-56
2022/01/11 02:41:13;;;;;;;7.75;6.68;;;9.20;99.90;;;;;;5081738;28;20511;-55
2022/01/11 02:43:46;;;;;;;9.02;6.90;;;9.20;99.90;;;;;;5084184;28;20548;-60
2022/01/11 02:46:13;;;;;;;;;;;9.20;99.90;;;;;;5082838;28;20055;-56
2022/01/11 02:48:40;;;;;;;8.68;6.47;;;9.20;99.90;;;;;;5084804;28;20351;-61
2022/01/11 02:51:07;;;;;;;7.82;6.13;;;9.20;99.90;;;;;;5084486;28;20429;-53
2022/01/11 02:53:44;;;;;;;8.45;6.85;;;9.20;99.90;;;;;;5084565;28;20087;-55
2022/01/11 02:56:11;;;;;;;7.97;6.07;;;9.20;99.90;;;;;;5085407;28;20472;-56
2022/01/11 02:58:38;;;;;;;8.43;6.15;;;9.20;99.90;;;;;;5084525;28;20164;-56
2022/01/11 03:01:05;;;;;;;9.75;6.35;;;9.20;99.90;;;;;;5084417;28;20072;-54
2022/01/11 03:03:32;;;;;;;9.63;6.45;;;9.20;99.90;;;;;;5067262;28;20627;-55
2022/01/11 03:06:03;;;;;;;8.32;6.05;;;9.30;99.90;;;;;;5085123;28;20138;-57
2022/01/11 03:08:32;;;;;;;7.20;6.15;;;9.20;99.90;;;;;;5085469;28;20090;-53
2022/01/11 03:11:00;;;;;;;8.48;5.93;;;9.30;99.90;;;;;;5085366;28;20094;-56
2022/01/11 03:13:26;;;;;;;7.35;6.32;;;9.20;99.90;;;;;;5083785;28;20040;-58
2022/01/11 03:15:53;;;;;;;8.75;6.43;;;9.20;99.90;;;;;;5083649;28;20172;-58
2022/01/11 03:18:20;;;;;;;8.40;5.38;;;9.20;99.90;;;;;;5084674;28;20051;-55
2022/01/11 03:20:48;;;;;;;6.65;5.15;;;9.30;99.90;;;;;;5084706;28;20078;-58
2022/01/11 03:23:16;;;;;;;7.70;5.50;;;9.30;99.90;;;;;;5085591;28;20098;-55
2022/01/11 03:25:43;;;;;;;7.07;5.47;;;9.30;99.90;;;;;;5085551;28;20055;-55
2022/01/11 03:28:10;;;;;;;9.02;5.47;;;9.30;99.90;;;;;;5084846;28;20079;-55
2022/01/11 03:30:36;;;;;;;6.80;5.40;;;9.30;99.90;;;;;;5084149;28;20440;-55
2022/01/11 03:33:06;;;;;;;10.77;6.25;;;9.30;99.90;;;;;;5083983;28;20071;-53
2022/01/11 03:35:32;;;;;;;7.60;5.57;;;9.30;99.90;;;;;;5089233;28;20076;-57
2022/01/11 03:38:00;;;;;;;7.20;5.57;;;9.30;99.90;;;;;;5087008;28;20040;-56
2022/01/11 03:40:27;;;;;;;7.20;5.22;;;9.30;99.90;;;;;;5089456;28;20083;-61
2022/01/11 03:42:54;;;;;;;6.93;5.75;;;9.30;99.90;;;;;;5088942;28;20052;-55
2022/01/11 03:45:21;;;;;;;8.65;6.50;;;9.30;99.90;;;;;;5088970;28;20080;-60
2022/01/11 03:47:49;;;;;;;6.90;4.68;;;9.30;99.90;;;;;;5086710;28;20157;-57
2022/01/11 03:50:17;;;;;;;6.45;5.00;;;9.30;99.90;;;;;;5089536;28;20087;-55
2022/01/11 03:52:44;;;;;;;8.65;5.53;;;9.20;99.90;;;;;;5088708;28;20426;-59
2022/01/11 03:55:13;;;;;;;7.43;5.90;;;9.20;99.90;;;;;;5087893;28;20071;-61
2022/01/11 03:57:40;;;;;;;7.55;5.90;;;9.20;99.90;;;;;;5088688;28;20109;-59
2022/01/11 04:00:12;;;;;;;8.25;5.75;;;9.20;99.90;;;;;;5088987;28;20145;-56
2022/01/11 04:02:39;;;;;;;10.97;6.37;;;9.20;99.90;;;;;;5086673;28;20131;-56
2022/01/11 04:05:07;;;;;;;8.27;5.38;;;9.20;99.90;;;;;;5088804;28;20316;-56
2022/01/11 04:07:33;;;;;;;7.50;5.18;;;9.20;99.90;;;;;;5088034;28;20079;-58
2022/01/11 04:10:02;;;;;;;6.47;5.22;;;9.20;99.90;;;;;;5087470;28;20409;-56
2022/01/11 04:12:28;;;;;;;9.85;4.45;;;9.20;99.90;;;;;;5087443;28;20044;-54
2022/01/11 04:14:55;;;;;;;7.05;4.80;;;9.20;99.90;;;;;;5087582;28;20067;-56
2022/01/11 04:17:22;;;;;;;6.82;4.63;;;9.30;99.90;;;;;;5086973;28;20067;-55
2022/01/11 04:19:50;;;;;;;7.63;4.13;;;9.30;99.90;;;;;;5087908;28;20134;-54
2022/01/11 04:22:16;;;;;;;6.32;4.43;;;9.30;99.90;;;;;;5087277;28;20076;-56
2022/01/11 04:24:43;;;;;;;7.28;4.30;;;9.30;99.90;;;;;;5088188;28;20487;-52
2022/01/11 04:27:10;;;;;;;7.28;4.35;;;9.30;99.90;;;;;;5087236;28;20186;-54
2022/01/11 04:29:37;;;;;;;6.07;4.28;;;9.30;99.90;;;;;;5087582;28;20597;-56
2022/01/11 04:32:04;;;;;;;6.03;4.28;;;9.40;99.90;;;;;;5086414;28;20475;-53
2022/01/11 04:34:31;;;;;;;5.63;4.28;;;9.30;99.90;;;;;;5086620;28;20123;-56
2022/01/11 04:36:58;;;;;;;5.90;3.45;;;9.30;99.90;;;;;;5087022;28;20067;-54
2022/01/11 04:39:24;;;;;;;5.57;3.80;;;9.30;99.90;;;;;;5087312;28;20097;-56
2022/01/11 04:41:51;;;;;;;4.32;3.55;;;9.30;99.90;;;;;;5086904;28;20045;-56
2022/01/11 04:44:18;;;;;;;5.57;3.50;;;9.30;99.90;;;;;;5087272;28;20546;-53
2022/01/11 04:46:46;;;;;;;5.45;3.97;;;9.40;99.90;;;;;;5085521;28;20071;-55
2022/01/11 04:49:12;;;;;;;5.82;4.07;;;9.30;99.90;;;;;;5086006;28;20076;-56
2022/01/11 04:51:39;;;;;;;6.10;3.90;;;9.30;99.90;;;;;;5087112;28;20246;-56
2022/01/11 04:54:07;;;;;;;4.80;3.50;;;9.30;99.90;;;;;;5086346;28;20082;-55
2022/01/11 04:56:34;;;;;;;6.25;4.30;;;9.30;99.90;;;;;;5086550;28;20136;-55
2022/01/11 04:59:00;;;;;;;6.15;3.90;;;9.30;99.90;;;;;;5087230;28;20140;-53
2022/01/11 05:01:29;;;;;;;4.55;2.92;;;9.30;99.90;;;;;;5085583;28;20079;-55
2022/01/11 05:03:56;;;;;;;5.13;3.13;;;9.30;99.90;;;;;;5080290;28;20561;-55
2022/01/11 05:06:23;;;;;;;6.18;3.60;;;9.30;99.90;;;;;;5087079;28;20105;-58
2022/01/11 05:08:50;;;;;;;3.97;3.22;;;9.30;99.90;;;;;;5086333;28;20143;-54
2022/01/11 05:11:16;;;;;;;5.68;3.50;;;9.30;99.90;;;;;;5087196;28;20720;-56
2022/01/11 05:13:43;;;;;;;5.03;3.60;;;9.30;99.90;;;;;;5086133;28;20189;-55
2022/01/11 05:16:10;;;;;;;6.72;2.97;;;9.30;99.90;;;;;;5085282;28;20048;-55
2022/01/11 05:18:37;;;;;;;4.63;3.30;;;9.30;99.90;;;;;;5085791;28;20527;-56
2022/01/11 05:21:04;;;;;;;4.45;3.05;;;9.40;99.90;;;;;;5086342;28;20637;-55
2022/01/11 05:23:31;;;;;;;4.57;3.15;;;9.40;99.90;;;;;;5086985;28;20071;-55
2022/01/11 05:25:58;;;;;;;4.35;2.88;;;9.30;99.90;;;;;;5086039;28;20587;-53
2022/01/11 05:28:24;;;;;;;5.50;3.80;;;9.30;99.90;;;;;;5086164;28;20048;-56
2022/01/11 05:30:51;;;;;;;6.97;4.03;;;9.40;99.90;;;;;;5085197;28;20147;-55
2022/01/11 05:33:18;;;;;;;5.72;3.72;;;9.40;99.90;;;;;;5085759;28;20814;-53
2022/01/11 05:35:46;;;;;;;4.78;3.30;;;9.40;99.90;;;;;;5085769;28;20087;-54
2022/01/11 05:38:12;;;;;;;7.28;4.50;;;9.40;99.90;;;;;;5086057;28;20080;-54
2022/01/11 05:40:39;;;;;;;5.82;4.22;;;9.30;99.90;;;;;;5084708;28;20474;-53
2022/01/11 05:43:06;;;;;;;5.75;3.90;;;9.30;99.90;;;;;;5085900;28;20080;-55
2022/01/11 05:45:33;;;;;;;5.13;4.03;;;9.30;99.90;;;;;;5085652;28;20094;-55
2022/01/11 05:48:03;;;;;;;5.25;4.00;;;9.30;99.90;;;;;;5082834;28;20052;-56
2022/01/11 05:50:31;;;;;;;6.18;4.20;;;9.30;99.90;;;;;;5083020;28;20125;-55
2022/01/11 05:52:58;;;;;;;5.28;3.38;;;9.30;99.90;;;;;;5066592;28;20123;-57
2022/01/11 05:55:25;;;;;;;5.88;4.20;;;9.30;99.90;;;;;;5084817;28;20103;-55
2022/01/11 05:57:51;;;;;;;5.40;3.60;;;9.30;99.90;;;;;;5083562;28;20127;-56
2022/01/11 06:00:19;;;;;;;5.05;3.72;;;9.40;99.90;;;;;;5082584;28;20155;-58
2022/01/11 06:02:48;;;;;;;5.20;3.10;;;9.40;99.90;;;;;;5075734;28;20098;-56
2022/01/11 06:05:17;;;;;;;4.57;3.60;;;9.40;99.90;;;;;;5061901;28;20059;-56
2022/01/11 06:07:43;;;;;;;3.80;3.10;;;9.40;99.90;;;;;;5079232;28;20040;-53
2022/01/11 06:10:11;;;;;;;3.67;3.08;;;9.40;99.90;;;;;;5083702;28;20394;-55
2022/01/11 06:12:37;;;;;;;5.35;3.95;;;9.40;99.90;;;;;;5077352;28;20126;-52
2022/01/11 06:15:04;;;;;;;6.75;3.53;;;9.40;99.90;;;;;;5085171;28;20048;-55
2022/01/11 06:17:31;;;;;;;3.85;3.42;;;9.40;99.90;;;;;;5082678;28;20147;-55
2022/01/11 06:19:58;;;;;;;4.05;2.72;;;9.40;99.90;;;;;;5084758;28;20158;-56
2022/01/11 06:22:25;;;;;;;4.10;3.20;;;9.40;99.90;;;;;;5083993;28;20546;-56
2022/01/11 06:24:52;;;;;;;4.60;3.35;;;9.40;99.90;;;;;;5082315;28;20092;-56
2022/01/11 06:27:19;;;;;;;3.47;3.05;;;9.40;99.90;;;;;;5075571;28;20152;-54
2022/01/11 06:29:45;;;;;;;4.45;3.28;;;9.50;99.90;;;;;;5077606;28;20138;-54
2022/01/11 06:32:12;;;;;;;3.55;2.65;;;9.50;99.90;;;;;;5073031;28;20224;-56
2022/01/11 06:34:39;;;;;;;4.30;3.03;;;9.50;99.90;;;;;;5077791;28;20084;-56
2022/01/11 06:37:06;;;;;;;4.80;3.38;;;9.40;99.90;;;;;;5077298;28;20056;-56
2022/01/11 06:39:36;;;;;;;3.50;2.90;;;9.50;99.90;;;;;;5067018;28;20132;-55
2022/01/11 06:42:04;;;;;;;3.30;2.65;;;9.50;99.90;;;;;;5075643;28;20048;-55
2022/01/11 06:44:31;;;;;;;4.22;2.88;;;9.50;99.90;;;;;;5076772;28;20163;-55
2022/01/11 06:46:58;;;;;;;4.30;3.40;;;9.50;99.90;;;;;;5077513;28;20127;-54
2022/01/11 06:49:25;;;;;;;4.35;3.00;;;9.50;99.90;;;;;;5075295;28;20082;-55
2022/01/11 06:51:51;;;;;;;3.70;2.83;;;9.50;99.90;;;;;;5075018;28;20087;-56
2022/01/11 06:54:18;;;;;;;3.95;3.17;;;9.50;99.90;;;;;;5077683;28;20071;-52
2022/01/11 06:56:45;;;;;;;4.75;2.50;;;9.50;99.90;;;;;;5075076;28;20133;-56
2022/01/11 06:59:11;;;;;;;4.18;2.72;;;9.50;99.90;;;;;;5076789;28;20635;-55
2022/01/11 07:01:38;;;;;;;3.47;2.83;;;9.50;99.90;;;;;;5076950;28;20119;-55
2022/01/11 07:04:06;;;;;;;3.13;2.83;;;9.50;99.90;;;;;;5076671;28;20546;-55
2022/01/11 07:06:32;;;;;;;4.35;3.33;;;9.50;99.90;;;;;;5076048;28;20067;-56
2022/01/11 07:08:59;;;;;;;3.75;3.00;;;9.50;99.90;;;;;;5072571;28;20160;-55
2022/01/11 07:11:26;;;;;;;3.97;3.05;;;9.50;99.90;;;;;;5076075;28;20168;-55
2022/01/11 07:13:52;;;;;;;4.07;3.05;;;9.60;99.90;;;;;;5076687;28;20118;-57
2022/01/11 07:16:19;;;;;;;3.60;2.95;;;9.60;99.90;;;;;;5076066;28;20513;-54
2022/01/11 07:18:47;;;;;;;4.25;2.92;;;9.60;99.90;;;;;;5075590;28;20059;-56
2022/01/11 07:21:14;;;;;;;3.50;2.67;;;9.60;99.90;;;;;;5075819;28;20112;-56
2022/01/11 07:23:41;;;;;;;4.20;2.78;;;9.60;99.90;;;;;;5075128;28;20452;-54
2022/01/11 07:26:07;;;;;;;3.03;2.35;;;9.60;99.90;;;;;;5075142;28;20083;-54
2022/01/11 07:28:35;;;;;;;3.55;2.70;;;9.60;99.90;;;;;;5078123;28;20083;-59
2022/01/11 07:31:02;;;;;;;3.47;2.88;;;9.60;99.90;;;;;;5075388;28;20048;-54
2022/01/11 07:33:32;;;;;;;3.47;2.28;;;9.60;99.90;;;;;;5077167;28;20098;-56
2022/01/11 07:35:59;;;;;;;2.90;2.50;;;9.60;99.90;;;;;;5076999;28;20087;-53
2022/01/11 07:38:25;;;;;;;2.85;2.30;;;9.60;99.90;;;;;;5077895;28;20464;-56
2022/01/11 07:40:52;;;;;;;3.08;2.45;;;9.60;99.90;;;;;;5074409;28;20171;-56
2022/01/11 07:43:19;;;;;;;2.72;2.10;;;9.60;99.90;;;;;;5076619;28;20082;-55
2022/01/11 07:45:46;;;;;;;2.17;1.77;;;9.60;99.90;;;;;;5073805;28;20556;-55
2022/01/11 07:48:13;;;;;;;2.63;2.03;;;9.60;99.90;;;;;;5077595;28;20079;-56
2022/01/11 07:50:39;;;;;;;2.40;2.00;;;9.70;99.90;;;;;;5075809;28;20106;-56
2022/01/11 07:53:06;;;;;;;1.95;1.42;;;9.70;99.90;;;;;;5074313;28;20051;-53
2022/01/11 07:55:33;;;;;;;2.40;2.00;;;9.70;99.90;;;;;;5077007;28;20214;-53
2022/01/11 07:58:01;;;;;;;2.03;1.50;;;9.70;99.90;;;;;;5075928;28;20525;-56
2022/01/11 08:00:28;;;;;;;1.90;1.42;;;9.70;99.90;;;;;;5077083;28;20647;-54
2022/01/11 08:02:55;;;;;;;2.50;1.55;;;9.70;99.90;;;;;;5075060;28;20127;-56
2022/01/11 08:05:22;;;;;;;2.60;1.50;;;9.70;99.90;;;;;;5076620;28;20452;-52
2022/01/11 08:07:49;;;;;;;1.48;1.35;;;9.70;99.90;;;;;;5075603;28;20462;-55
2022/01/11 08:10:18;;;;;;;2.40;1.65;;;9.70;99.90;;;;;;5077094;28;20131;-56
2022/01/11 08:12:50;;;;;;;1.75;1.42;;;9.70;99.90;;;;;;5076256;28;20131;-56
2022/01/11 08:15:16;;;;;;;1.83;1.33;;;9.70;99.90;;;;;;5074344;28;20075;-56
2022/01/11 08:17:43;;;;;;;2.28;1.58;;;9.70;99.90;;;;;;5075493;28;20174;-53
2022/01/11 08:20:10;;;;;;;2.03;1.70;;;9.70;99.90;;;;;;5073956;28;20298;-54
2022/01/11 08:22:37;;;;;;;2.97;1.90;;;9.70;99.90;;;;;;5079373;28;20206;-50
2022/01/11 08:25:04;;;;;;;2.88;1.70;;;9.70;99.90;;;;;;5079955;28;20130;-54
2022/01/11 08:27:33;;;;;;;2.38;1.88;;;9.60;99.90;;;;;;5079636;28;20175;-55
2022/01/11 08:30:01;;;;;;;1.80;1.35;;;9.60;99.90;;;;;;5079738;28;20108;-55
2022/01/11 08:32:27;;;;;;;2.83;1.92;;;9.60;99.90;;;;;;5075244;28;20486;-55
2022/01/11 08:34:54;;;;;;;2.83;1.90;;;9.50;99.90;;;;;;5079357;28;20052;-56
2022/01/11 08:37:21;;;;;;;4.10;2.25;;;9.50;99.90;;;;;;5079524;28;20040;-55
2022/01/11 08:39:47;;;;;;;4.65;2.08;;;9.50;99.90;;;;;;5077313;28;20094;-54
2022/01/11 08:42:14;;;;;;;3.47;2.40;;;9.50;99.90;;;;;;5077162;28;20148;-55
2022/01/11 08:44:49;;;;;;;2.65;1.70;;;9.40;99.90;;;;;;5079684;28;20074;-56
2022/01/11 08:47:17;;;;;;;2.35;1.65;;;9.40;99.90;;;;;;5078387;28;20151;-52
2022/01/11 08:49:44;;;;;;;2.75;1.90;;;9.40;99.90;;;;;;5080105;28;20155;-54
2022/01/11 08:52:11;;;;;;;2.22;1.77;;;9.40;99.90;;;;;;5079918;28;20134;-56
2022/01/11 08:54:37;;;;;;;3.25;2.20;;;9.40;99.90;;;;;;5079715;28;20646;-53
2022/01/11 08:57:04;;;;;;;2.97;2.13;;;9.40;99.90;;;;;;5080118;28;20135;-54
2022/01/11 08:59:31;;;;;;;3.03;2.40;;;9.50;99.90;;;;;;5079585;28;20155;-53
2022/01/11 09:02:01;;;;;;;2.60;2.28;;;9.40;99.90;;;;;;5078525;28;20115;-54
2022/01/11 09:04:28;;;;;;;3.17;2.00;;;9.40;99.90;;;;;;5079668;28;20121;-54
2022/01/11 09:06:57;;;;;;;2.58;2.20;;;9.40;99.90;;;;;;5077912;28;20238;-55
2022/01/11 09:09:28;;;;;;;2.75;2.22;;;9.50;99.90;;;;;;5078756;28;20151;-55
2022/01/11 09:11:55;;;;;;;2.45;2.03;;;9.50;99.90;;;;;;5075749;28;20066;-55
2022/01/11 09:14:22;;;;;;;3.22;2.30;;;9.50;99.90;;;;;;5056670;28;20574;-56
2022/01/11 09:16:49;;;;;;;3.20;2.20;;;9.60;99.90;;;;;;5077161;28;20154;-55
2022/01/11 09:19:18;;;;;;;2.40;1.70;;;9.60;99.90;;;;;;5076161;28;20074;-54
2022/01/11 09:21:44;;;;;;;2.92;2.20;;;9.70;99.90;;;;;;5077157;28;20567;-53
2022/01/11 09:24:12;;;;;;;3.13;2.17;;;9.80;99.90;;;;;;5076319;28;20524;-53
2022/01/11 09:26:42;;;;;;;2.60;1.90;;;9.80;99.90;;;;;;5077652;28;20099;-51
2022/01/11 09:29:08;;;;;;;2.47;1.83;;;9.90;99.90;;;;;;5079020;28;20407;-55
2022/01/11 09:31:35;;;;;;;2.60;2.08;;;9.90;99.90;;;;;;5077945;28;20132;-53
2022/01/11 09:34:02;;;;;;;2.90;2.13;;;9.90;99.90;;;;;;5078859;28;20093;-55
2022/01/11 09:36:29;;;;;;;2.40;1.85;;;9.90;99.90;;;;;;5078870;28;20139;-53
2022/01/11 09:38:56;;;;;;;2.95;2.30;;;9.90;99.90;;;;;;5076965;28;20071;-54
2022/01/11 09:41:22;;;;;;;2.85;2.30;;;9.90;99.90;;;;;;5078657;28;20147;-55
2022/01/11 09:43:49;;;;;;;2.78;2.00;;;10.00;99.90;;;;;;5076598;28;20880;-53
2022/01/11 09:46:16;;;;;;;2.70;2.17;;;10.00;99.90;;;;;;5078405;28;20060;-54
2022/01/11 09:48:45;;;;;;;2.75;1.88;;;10.00;99.90;;;;;;5077567;28;20055;-55
2022/01/11 09:51:11;;;;;;;2.58;1.98;;;10.00;99.90;;;;;;5077846;28;20075;-55
2022/01/11 09:53:38;;;;;;;2.50;2.08;;;10.00;99.90;;;;;;5076346;28;20143;-52
2022/01/11 09:56:06;;;;;;;2.30;2.10;;;10.10;99.90;;;;;;5078422;28;20043;-53
2022/01/11 09:58:33;;;;;;;2.05;1.80;;;10.20;99.90;;;;;;5079099;28;20452;-55
2022/01/11 10:00:59;;;;;;;2.65;2.00;;;10.20;99.90;;;;;;5078325;28;20120;-55
2022/01/11 10:03:26;;;;;;;2.13;1.60;;;10.30;99.90;;;;;;5077550;28;20094;-54
2022/01/11 10:05:53;;;;;;;2.05;1.75;;;10.30;99.90;;;;;;5077534;28;20074;-54
2022/01/11 10:08:30;;;;;;;2.17;1.83;;;10.40;99.90;;;;;;5077066;28;20500;-55
2022/01/11 10:10:58;;;;;;;1.83;1.55;;;10.40;99.90;;;;;;5075522;28;20686;-54
2022/01/11 10:13:30;;;;;;;2.30;1.65;;;10.40;99.90;;;;;;5075783;28;20231;-55
2022/01/11 10:15:57;;;;;;;2.20;1.92;;;10.40;99.90;;;;;;5077890;28;20171;-55
2022/01/11 10:18:36;;;;;;;2.92;2.20;;;10.50;99.90;;;;;;5078046;28;20143;-54
2022/01/11 10:21:34;;;;;;;2.10;1.52;;;10.50;99.90;;;;;;5076351;28;20508;-55
2022/01/11 10:24:23;;;;;;;3.78;1.63;;;10.50;99.90;;;;;;5074663;28;20087;-54
2022/01/11 10:26:50;;;;;;;1.83;1.33;;;10.50;99.90;;;;;;5077366;28;20067;-55
2022/01/11 10:29:24;;;;;;;2.00;1.38;;;10.50;99.90;;;;;;5078311;28;20127;-55
2022/01/11 10:31:52;;;;;;;1.60;1.30;;;10.50;99.90;;;;;;5076748;28;20075;-55
2022/01/11 10:34:32;;;;;;;2.55;1.52;;;10.60;99.90;;;;;;5072537;28;20138;-52
2022/01/11 10:37:01;;;;;;;1.98;1.30;;;10.60;99.90;;;;;;5078801;28;20756;-55
2022/01/11 10:39:29;;;;;;;1.70;1.35;;;10.60;99.90;;;;;;5078560;28;20056;-54
2022/01/11 10:41:56;;;;;;;1.90;1.38;;;10.60;99.90;;;;;;5076528;28;20141;-54
2022/01/11 10:44:47;;;;;;;2.38;1.63;;;10.60;99.90;;;;;;5073415;28;20076;-53
2022/01/11 10:47:22;;;;;;;1.40;1.10;;;10.60;99.90;;;;;;5075839;28;20605;-55
2022/01/11 10:49:51;;;;;;;2.22;1.50;;;10.60;99.90;;;;;;5077068;28;20136;-53
2022/01/11 10:52:22;;;;;;;1.98;1.30;;;10.60;99.90;;;;;;5076859;28;20140;-53
2022/01/11 10:54:49;;;;;;;2.00;1.38;;;10.60;99.90;;;;;;5077035;28;20150;-55
2022/01/11 10:57:23;;;;;;;2.15;1.60;;;10.70;99.90;;;;;;5078343;28;20132;-53
2022/01/11 11:00:13;;;;;;;1.77;1.25;;;10.60;99.90;;;;;;5078032;28;20084;-55
2022/01/11 11:02:40;;;;;;;2.10;1.60;;;10.60;99.90;;;;;;5077017;28;20177;-54
2022/01/11 11:05:30;;;;;;;2.10;1.45;;;10.70;99.90;;;;;;5078736;28;20156;-54
2022/01/11 11:08:06;;;;;;;2.75;1.67;;;10.70;99.90;;;;;;5078008;28;20551;-54
2022/01/11 11:10:59;;;;;;;2.65;1.80;;;10.80;99.90;;;;;;5078842;28;20131;-51
2022/01/11 11:13:30;;;;;;;2.15;1.67;;;10.80;99.90;;;;;;5078547;28;20444;-56
2022/01/11 11:16:07;;;;;;;2.10;1.42;;;10.80;99.90;;;;;;5077330;28;20048;-51
2022/01/11 11:18:38;;;;;;;2.00;1.50;;;10.90;99.90;;;;;;5077723;28;20052;-55
2022/01/11 11:21:15;;;;;;;2.30;1.77;;;11.00;99.90;;;;;;5077764;28;20062;-54
2022/01/11 11:23:42;;;;;;;1.80;1.40;;;11.10;99.90;;;;;;5078612;28;20087;-54
2022/01/11 11:26:09;;;;;;;4.20;1.60;;;11.20;99.90;;;;;;5078426;28;20098;-56
2022/01/11 11:28:36;;;;;;;2.70;1.92;;;11.30;99.90;;;;;;5078163;28;20123;-55
2022/01/11 11:31:04;;;;;;;1.80;1.50;;;11.40;99.90;;;;;;5076388;28;20793;-53
2022/01/11 11:33:30;;;;;;;1.73;1.33;;;11.50;99.90;;;;;;5077478;28;20052;-55
2022/01/11 11:35:57;;;;;;;2.15;1.60;;;11.60;99.90;;;;;;5060322;28;20134;-53
2022/01/11 11:38:29;;;;;;;2.20;1.70;;;11.70;99.90;;;;;;5077815;28;20043;-54
2022/01/11 11:40:56;;;;;;;2.03;1.50;;;11.80;99.90;;;;;;5076633;28;20063;-55
2022/01/11 11:43:23;;;;;;;2.05;1.52;;;11.90;99.90;;;;;;5075889;28;20124;-55
2022/01/11 11:45:50;;;;;;;2.10;1.60;;;11.90;99.90;;;;;;5076848;28;20155;-55
2022/01/11 11:48:18;;;;;;;2.30;1.67;;;11.90;99.90;;;;;;5078282;28;20151;-56
2022/01/11 11:50:51;;;;;;;2.20;1.58;;;12.00;99.90;;;;;;5078344;28;20145;-55
2022/01/11 11:53:31;;;;;;;;;;;12.00;99.90;;;;;;5078020;28;20088;-55
2022/01/11 11:56:33;;;;;;;2.42;1.73;;;12.00;99.90;;;;;;5082106;28;19963;-54
2022/01/11 11:59:01;;;;;;;3.90;1.80;;;11.90;99.90;;;;;;5062466;28;20080;-55
2022/01/11 12:01:45;;;;;;;1.67;1.30;;;11.90;99.90;;;;;;5063868;28;20155;-54
2022/01/11 12:04:19;;;;;;;2.28;1.60;;;11.90;99.90;;;;;;5081730;28;20537;-56
2022/01/11 12:06:46;;;;;;;4.10;2.83;;;11.80;99.90;;;;;;5086225;28;20138;-55
2022/01/11 12:09:18;;;;;;;4.75;3.40;;;11.70;99.90;;;;;;5087952;28;20151;-54
2022/01/11 12:11:46;;;;;;;5.22;3.80;;;11.60;99.90;;;;;;5087562;28;20690;-55
2022/01/11 12:14:29;;;;;;;5.80;3.70;;;11.60;99.90;;;;;;5087430;28;20098;-54
2022/01/11 12:16:56;;;;;;;5.90;3.63;;;11.60;99.90;;;;;;5087229;28;20136;-53
2022/01/11 12:19:40;;;;;;;6.25;4.53;;;11.60;99.90;;;;;;5087142;28;20226;-54
2022/01/11 12:22:06;;;;;;;5.80;3.80;;;11.60;99.90;;;;;;5087219;28;20048;-55
2022/01/11 12:24:41;;;;;;;5.38;3.85;;;11.50;99.90;;;;;;5083851;28;20087;-54
2022/01/11 12:27:10;;;;;;;6.63;4.28;;;11.50;99.90;;;;;;5082837;28;20140;-54
2022/01/11 12:29:38;;;;;;;5.38;4.00;;;11.50;99.90;;;;;;5077319;28;20452;-55
2022/01/11 12:32:06;;;;;;;5.00;3.60;;;11.40;99.90;;;;;;5085833;28;20527;-54
2022/01/11 12:35:03;;;;;;;6.40;4.18;;;11.40;99.90;;;;;;5084546;28;20192;-55
2022/01/11 12:37:31;;;;;;;5.72;4.35;;;11.50;99.90;;;;;;5077495;28;20139;-51
2022/01/11 12:40:19;;;;;;;5.28;4.20;;;11.50;99.90;;;;;;5086838;28;20054;-54
2022/01/11 12:42:53;;;;;;;5.53;3.83;;;11.50;99.90;;;;;;5085190;28;20052;-53
2022/01/11 12:45:58;;;;;;;6.00;3.90;;;11.60;99.90;;;;;;5084036;28;20044;-54
2022/01/11 12:48:50;;;;;;;4.30;3.40;;;11.60;99.90;;;;;;5076414;28;20051;-53
2022/01/11 12:51:26;;;;;;;4.43;3.58;;;11.60;99.90;;;;;;5073112;28;20101;-55
2022/01/11 12:54:17;;;;;;;5.28;3.60;;;11.60;99.90;;;;;;5080220;28;20083;-57
2022/01/11 12:56:46;;;;;;;3.42;2.95;;;11.50;99.90;;;;;;5078336;28;20796;-53
2022/01/11 12:59:13;;;;;;;4.78;3.55;;;11.50;99.90;;;;;;5079046;28;20483;-53
2022/01/11 13:01:41;;;;;;;4.18;3.13;;;11.50;99.90;;;;;;5079342;28;20153;-56
2022/01/11 13:04:08;;;;;;;3.78;3.13;;;11.40;99.90;;;;;;5080254;28;20079;-55
2022/01/11 13:06:36;;;;;;;3.47;3.17;;;11.50;99.90;;;;;;5079368;28;20135;-53